Pagina principale
METAR-TAF:

METAR-TAF

Aeroporti :

Aeroporto di Niamey-Diori Hamani

Niamey, Niger

latitudine: 13-29N, longitudine: 002-10E, altezza: 223 m

Osservazione

Il bollettino è stato emesso 54 minuti fa, alle 14:00 UTC
Vento 11 kt da ovest, variando fra sud-ovest e ovest/nord-ovest
Temperature 41°C
Umidità 23%
Pressione 1006 hPa
Visibilità: 8000 m

METAR: DRRN 211400Z 27011KT 230V290 8000 NSC 41/16 Q1006 NOSIG

Ora: 15:54 (14:54 UTC)

Previsione

Il bollettino è stato emesso 3 ore e 54 minuti fa, alle 11:00 UTC
Previsione valida dal 21 alle 12 UTC al 22 alle 18 UTC
Vento 10 kt da ovest/sud-ovest
Visibilità: 8000 m
Probabilità 40% :
Temporaneamente
dal 21 alle 21 UTC al 22 alle 03 UTC
Vento 30 kt da est/sud-est
Visibilità: 1200 m
Nubi sparse ad un'altezza di 3000 ft
Poco nuvoloso ad un'altezza di 4000 ft, Cumulonembo.
Scaccia polvere alto, temporale, pioggia debole

TAF: DRRN 211100Z 2112/2218 24010KT 8000 NSC PROB40 TEMPO 2121/2203 12030KT 1200 BLDU -TSRA SCT030 FEW040CB

Osservazioni e previsioni meteorologiche di più di 4000 aeroporti (messaggi METAR e TAF).

Le stazioni disponibili sono rappresentate dai dischi gialli e rossi sulla carta.

Puntare il mouse per vedere il nome della stazione.

Clicca sopra per visualizzare le osservazioni e previsioni meteorologiche.

Per cambiare la mappa : fare clic sui pulsanti verdi con una croce nera per ingrandire, il pulsante verde con un trattino per diminuire, o sulla freccia verde per le mappe adiacenti.


METAR-TAF: